Time,TemperatureF,DewpointF,PressureIn,WindDirection,WindDirectionDegrees,WindSpeedMPH,WindSpeedGustMPH,Humidity,HourlyPrecipIn,Conditions,Clouds,dailyrainin,SoftwareType,DateUTC
2013-08-12 00:01:00,54.1,50.5,30.05,NW,315,0.0,0.0,88,0.00,,,0.00,WUHU21636XXSP,2013-08-12 04:01:00,
2013-08-12 00:04:00,54.1,50.5,30.05,NW,315,0.0,0.0,89,0.00,,,0.00,WUHU21636XXSP,2013-08-12 04:04:00,
2013-08-12 00:09:00,54.1,50.5,30.05,NW,315,0.0,0.0,89,0.00,,,0.00,WUHU21636XXSP,2013-08-12 04:09:00,
2013-08-12 00:14:00,53.8,50.5,30.05,NW,315,0.0,0.0,89,0.00,,,0.00,WUHU21636XXSP,2013-08-12 04:14:00,
2013-08-12 00:19:00,53.6,50.4,30.05,NW,315,0.0,0.0,89,0.00,,,0.00,WUHU21636XXSP,2013-08-12 04:19:00,
2013-08-12 00:24:00,53.4,50.2,30.05,NW,315,0.0,0.0,89,0.00,,,0.00,WUHU21636XXSP,2013-08-12 04:24:00,
2013-08-12 00:29:00,53.2,50.0,30.05,NW,315,0.0,0.0,89,0.00,,,0.00,WUHU21636XXSP,2013-08-12 04:29:00,
2013-08-12 00:34:00,52.9,49.6,30.05,NW,315,0.0,0.0,89,0.00,,,0.00,WUHU21636XXSP,2013-08-12 04:34:00,
2013-08-12 00:39:00,53.1,49.8,30.05,NW,315,0.0,0.0,89,0.00,,,0.00,WUHU21636XXSP,2013-08-12 04:39:00,
2013-08-12 00:44:00,53.2,50.0,30.05,NW,315,0.0,0.0,89,0.00,,,0.00,WUHU21636XXSP,2013-08-12 04:44:00,
2013-08-12 00:49:00,53.2,50.0,30.05,NW,315,0.0,0.0,89,0.00,,,0.00,WUHU21636XXSP,2013-08-12 04:49:00,
2013-08-12 00:54:00,52.9,49.6,30.05,NW,315,0.0,0.0,89,0.00,,,0.00,WUHU21636XXSP,2013-08-12 04:54:00,
2013-08-12 00:59:00,52.9,49.6,30.05,NW,315,0.0,0.0,89,0.00,,,0.00,WUHU21636XXSP,2013-08-12 04:59:00,
2013-08-12 01:04:00,52.7,49.5,30.05,NW,315,0.0,0.0,89,0.00,,,0.00,WUHU21636XXSP,2013-08-12 05:04:00,
2013-08-12 01:09:00,53.1,49.8,30.05,NW,315,0.0,0.0,89,0.00,,,0.00,WUHU21636XXSP,2013-08-12 05:09:00,
2013-08-12 01:14:00,53.2,50.0,30.05,NW,315,0.0,0.0,89,0.00,,,0.00,WUHU21636XXSP,2013-08-12 05:14:00,
2013-08-12 01:19:00,53.2,49.6,30.05,NW,315,0.0,0.0,89,0.00,,,0.00,WUHU21636XXSP,2013-08-12 05:19:00,
2013-08-12 01:24:00,52.5,49.6,30.05,NW,315,0.0,0.0,90,0.00,,,0.00,WUHU21636XXSP,2013-08-12 05:24:00,
2013-08-12 01:29:00,52.5,49.6,30.05,NW,315,0.0,0.0,90,0.00,,,0.00,WUHU21636XXSP,2013-08-12 05:29:00,
2013-08-12 01:34:00,52.2,49.3,30.05,NW,315,0.0,0.0,90,0.00,,,0.00,WUHU21636XXSP,2013-08-12 05:34:00,
2013-08-12 01:39:00,52.0,49.1,30.05,NW,315,0.0,0.0,90,0.00,,,0.00,WUHU21636XXSP,2013-08-12 05:39:00,
2013-08-12 01:44:00,52.0,49.1,30.05,NW,315,0.0,0.0,90,0.00,,,0.00,WUHU21636XXSP,2013-08-12 05:44:00,
2013-08-12 01:49:00,52.0,49.1,30.05,NW,315,0.0,0.0,90,0.00,,,0.00,WUHU21636XXSP,2013-08-12 05:49:00,
2013-08-12 01:54:00,52.0,49.1,30.05,NW,315,0.0,0.0,90,0.00,,,0.00,WUHU21636XXSP,2013-08-12 05:54:00,
2013-08-12 01:59:00,52.0,49.1,30.04,NW,315,0.0,0.0,90,0.00,,,0.00,WUHU21636XXSP,2013-08-12 05:59:00,
2013-08-12 02:04:00,51.6,48.7,30.04,NW,315,0.0,0.0,90,0.00,,,0.00,WUHU21636XXSP,2013-08-12 06:04:00,
2013-08-12 02:09:00,51.4,48.6,30.04,NW,315,0.0,0.0,90,0.00,,,0.00,WUHU21636XXSP,2013-08-12 06:09:00,
2013-08-12 02:14:00,51.4,48.6,30.04,NW,315,0.0,0.0,90,0.00,,,0.00,WUHU21636XXSP,2013-08-12 06:14:00,
2013-08-12 02:19:00,51.4,48.6,30.04,NW,315,0.0,0.0,90,0.00,,,0.00,WUHU21636XXSP,2013-08-12 06:19:00,
2013-08-12 02:24:00,51.1,48.2,30.04,NW,315,0.0,0.0,90,0.00,,,0.00,WUHU21636XXSP,2013-08-12 06:24:00,
2013-08-12 02:29:00,50.9,48.0,30.04,NW,315,0.0,0.0,90,0.00,,,0.00,WUHU21636XXSP,2013-08-12 06:29:00,
2013-08-12 02:34:00,50.7,47.8,30.04,NW,315,0.0,0.0,90,0.00,,,0.00,WUHU21636XXSP,2013-08-12 06:34:00,
2013-08-12 02:39:00,50.7,47.8,30.04,NW,315,0.0,0.0,90,0.00,,,0.00,WUHU21636XXSP,2013-08-12 06:39:00,
2013-08-12 02:44:00,51.1,48.2,30.03,NW,315,0.0,0.0,90,0.00,,,0.00,WUHU21636XXSP,2013-08-12 06:44:00,
2013-08-12 02:49:00,51.4,48.6,30.03,NW,315,0.0,0.0,90,0.00,,,0.00,WUHU21636XXSP,2013-08-12 06:49:00,
2013-08-12 02:54:00,52.0,49.1,30.03,NW,315,0.0,0.0,90,0.00,,,0.00,WUHU21636XXSP,2013-08-12 06:54:00,
2013-08-12 02:59:00,52.0,49.1,30.03,NW,315,0.0,0.0,90,0.00,,,0.00,WUHU21636XXSP,2013-08-12 06:59:00,
2013-08-12 03:04:00,52.0,49.1,30.03,NW,315,0.0,0.0,90,0.00,,,0.00,WUHU21636XXSP,2013-08-12 07:04:00,
2013-08-12 03:09:00,51.8,48.9,30.03,NW,315,0.0,0.0,90,0.00,,,0.00,WUHU21636XXSP,2013-08-12 07:09:00,
2013-08-12 03:14:00,52.0,49.1,30.03,NW,315,0.0,0.0,90,0.00,,,0.00,WUHU21636XXSP,2013-08-12 07:14:00,
2013-08-12 03:19:00,52.2,49.3,30.02,NW,315,0.0,0.0,90,0.00,,,0.00,WUHU21636XXSP,2013-08-12 07:19:00,
2013-08-12 03:24:00,52.0,49.1,30.02,NW,315,0.0,0.0,90,0.00,,,0.00,WUHU21636XXSP,2013-08-12 07:24:00,
2013-08-12 03:29:00,51.4,48.6,30.02,NW,315,0.0,0.0,90,0.00,,,0.00,WUHU21636XXSP,2013-08-12 07:29:00,
2013-08-12 03:34:00,51.4,48.6,30.02,NW,315,0.0,0.0,90,0.00,,,0.00,WUHU21636XXSP,2013-08-12 07:34:00,
2013-08-12 03:39:00,51.1,48.2,30.02,NW,315,0.0,0.0,90,0.00,,,0.00,WUHU21636XXSP,2013-08-12 07:39:00,
2013-08-12 03:44:00,51.1,48.2,30.02,NW,315,0.0,0.0,90,0.00,,,0.00,WUHU21636XXSP,2013-08-12 07:44:00,
2013-08-12 03:49:00,51.4,48.6,30.02,NW,315,0.0,0.0,90,0.00,,,0.00,WUHU21636XXSP,2013-08-12 07:49:00,
2013-08-12 03:54:00,51.4,48.6,30.02,NW,315,0.0,0.0,90,0.00,,,0.00,WUHU21636XXSP,2013-08-12 07:54:00,
2013-08-12 03:59:00,51.4,48.6,30.02,NW,315,0.0,0.0,90,0.00,,,0.00,WUHU21636XXSP,2013-08-12 07:59:00,
2013-08-12 04:04:00,51.4,48.6,30.02,NW,315,0.0,0.0,90,0.00,,,0.00,WUHU21636XXSP,2013-08-12 08:04:00,
2013-08-12 04:09:00,51.6,48.7,30.02,NW,315,0.0,0.0,90,0.00,,,0.00,WUHU21636XXSP,2013-08-12 08:09:00,
2013-08-12 04:14:00,52.5,49.6,30.02,NW,315,0.0,0.0,90,0.00,,,0.00,WUHU21636XXSP,2013-08-12 08:14:00,
2013-08-12 04:19:00,53.2,50.4,30.01,NW,315,0.0,0.0,90,0.00,,,0.00,WUHU21636XXSP,2013-08-12 08:19:00,
2013-08-12 04:24:00,53.8,50.9,30.01,NW,315,0.0,0.0,90,0.00,,,0.00,WUHU21636XXSP,2013-08-12 08:24:00,
2013-08-12 04:29:00,54.3,51.4,30.01,NW,315,0.0,0.0,90,0.00,,,0.00,WUHU21636XXSP,2013-08-12 08:29:00,
2013-08-12 04:34:00,54.3,51.4,30.01,NW,315,0.0,0.0,90,0.00,,,0.00,WUHU21636XXSP,2013-08-12 08:34:00,
2013-08-12 04:39:00,54.0,51.1,30.01,NW,315,0.0,0.0,90,0.00,,,0.00,WUHU21636XXSP,2013-08-12 08:39:00,
2013-08-12 04:44:00,53.6,50.7,30.00,NW,315,0.0,0.0,90,0.00,,,0.00,WUHU21636XXSP,2013-08-12 08:44:00,
2013-08-12 04:49:00,54.0,51.1,30.01,NW,315,0.0,0.0,90,0.00,,,0.00,WUHU21636XXSP,2013-08-12 08:49:00,
2013-08-12 04:54:00,54.3,51.4,30.01,NW,315,0.0,0.0,90,0.00,,,0.00,WUHU21636XXSP,2013-08-12 08:54:00,
2013-08-12 04:59:00,54.5,51.6,30.01,NW,315,0.0,0.0,90,0.00,,,0.00,WUHU21636XXSP,2013-08-12 08:59:00,
2013-08-12 05:04:00,54.5,51.6,30.01,NW,315,0.0,0.0,90,0.00,,,0.00,WUHU21636XXSP,2013-08-12 09:04:00,
2013-08-12 05:09:00,54.5,51.6,30.01,NW,315,0.0,0.0,90,0.00,,,0.00,WUHU21636XXSP,2013-08-12 09:09:00,
2013-08-12 05:14:00,54.5,51.8,30.01,NW,315,0.0,0.0,90,0.00,,,0.00,WUHU21636XXSP,2013-08-12 09:14:00,
2013-08-12 05:19:00,54.3,51.4,30.00,NW,315,0.0,0.0,90,0.00,,,0.00,WUHU21636XXSP,2013-08-12 09:19:00,
2013-08-12 05:24:00,53.8,50.9,30.00,NW,315,0.0,0.0,90,0.00,,,0.00,WUHU21636XXSP,2013-08-12 09:24:00,
2013-08-12 05:29:00,53.8,50.9,30.00,NW,315,0.0,0.0,90,0.00,,,0.00,WUHU21636XXSP,2013-08-12 09:29:00,
2013-08-12 05:34:00,54.5,51.6,30.00,NW,315,0.0,0.0,90,0.00,,,0.00,WUHU21636XXSP,2013-08-12 09:34:00,
2013-08-12 05:39:00,55.0,52.2,30.00,NW,315,0.0,0.0,90,0.00,,,0.00,WUHU21636XXSP,2013-08-12 09:39:00,
2013-08-12 05:44:00,55.0,52.2,30.01,NW,315,0.0,0.0,90,0.00,,,0.00,WUHU21636XXSP,2013-08-12 09:44:00,
2013-08-12 05:49:00,55.0,52.2,30.00,NW,315,0.0,0.0,90,0.00,,,0.00,WUHU21636XXSP,2013-08-12 09:49:00,
2013-08-12 05:54:00,55.2,52.3,30.00,NW,315,0.0,0.0,90,0.00,,,0.00,WUHU21636XXSP,2013-08-12 09:54:00,
2013-08-12 05:59:00,55.6,52.7,30.00,NW,315,0.0,0.0,90,0.00,,,0.00,WUHU21636XXSP,2013-08-12 09:59:00,
2013-08-12 06:04:00,55.9,53.1,30.00,NW,315,0.0,0.0,90,0.00,,,0.00,WUHU21636XXSP,2013-08-12 10:04:00,
2013-08-12 06:09:00,56.1,53.2,30.00,NW,315,0.0,0.0,90,0.00,,,0.00,WUHU21636XXSP,2013-08-12 10:09:00,
2013-08-12 06:14:00,56.5,53.6,30.00,NW,315,0.0,0.0,90,0.00,,,0.00,WUHU21636XXSP,2013-08-12 10:14:00,
2013-08-12 06:19:00,56.8,54.0,30.00,NW,315,0.0,0.0,90,0.00,,,0.00,WUHU21636XXSP,2013-08-12 10:19:00,
2013-08-12 06:24:00,56.8,54.0,30.00,NW,315,0.0,0.0,90,0.00,,,0.00,WUHU21636XXSP,2013-08-12 10:24:00,
2013-08-12 06:29:00,57.0,54.1,30.00,NW,315,0.0,0.0,90,0.00,,,0.00,WUHU21636XXSP,2013-08-12 10:29:00,
2013-08-12 06:34:00,57.6,54.7,30.00,NW,315,0.0,0.0,90,0.00,,,0.00,WUHU21636XXSP,2013-08-12 10:34:00,
2013-08-12 06:39:00,57.7,54.9,30.00,NW,315,0.0,0.4,90,0.00,,,0.00,WUHU21636XXSP,2013-08-12 10:39:00,
2013-08-12 06:44:00,57.7,54.9,30.00,NW,315,0.0,0.4,90,0.00,,,0.00,WUHU21636XXSP,2013-08-12 10:44:00,
2013-08-12 06:49:00,58.1,55.2,30.00,NW,315,0.0,0.0,90,0.00,,,0.00,WUHU21636XXSP,2013-08-12 10:49:00,
2013-08-12 06:54:00,58.3,55.4,30.00,NW,315,2.4,2.4,90,0.00,,,0.00,WUHU21636XXSP,2013-08-12 10:54:00,
2013-08-12 06:59:00,58.3,55.4,30.00,WSW,247,0.0,2.4,90,0.00,,,0.00,WUHU21636XXSP,2013-08-12 10:59:00,
2013-08-12 07:04:00,58.6,55.8,30.00,SSW,202,0.0,2.4,90,0.00,,,0.00,WUHU21636XXSP,2013-08-12 11:04:00,
2013-08-12 07:09:00,58.8,55.9,30.00,SSE,157,1.7,1.7,90,0.00,,,0.00,WUHU21636XXSP,2013-08-12 11:09:00,
2013-08-12 07:14:00,59.0,56.1,30.00,SSE,157,0.6,1.7,90,0.00,,,0.00,WUHU21636XXSP,2013-08-12 11:14:00,
2013-08-12 07:19:00,59.2,56.3,30.00,South,180,1.7,1.7,90,0.00,,,0.00,WUHU21636XXSP,2013-08-12 11:19:00,
2013-08-12 07:24:00,59.4,56.5,30.00,SE,135,0.0,2.6,90,0.00,,,0.00,WUHU21636XXSP,2013-08-12 11:24:00,
2013-08-12 07:29:00,59.5,56.7,30.00,SE,135,2.2,2.6,90,0.00,,,0.00,WUHU21636XXSP,2013-08-12 11:29:00,
2013-08-12 07:34:00,59.5,56.7,30.00,SE,135,2.6,2.9,90,0.00,,,0.00,WUHU21636XXSP,2013-08-12 11:34:00,
2013-08-12 07:39:00,59.7,56.8,30.00,SE,135,0.0,2.9,90,0.00,,,0.00,WUHU21636XXSP,2013-08-12 11:39:00,
2013-08-12 07:44:00,59.7,56.8,30.00,South,180,1.5,2.6,90,0.00,,,0.00,WUHU21636XXSP,2013-08-12 11:44:00,
2013-08-12 07:49:00,59.5,56.7,30.00,SSE,157,3.3,3.3,90,0.00,,,0.00,WUHU21636XXSP,2013-08-12 11:49:00,
2013-08-12 07:54:00,59.2,56.3,30.00,SE,135,0.0,3.3,90,0.00,,,0.00,WUHU21636XXSP,2013-08-12 11:54:00,
2013-08-12 07:59:00,59.2,56.3,30.00,SE,135,1.3,1.7,90,0.00,,,0.00,WUHU21636XXSP,2013-08-12 11:59:00,
2013-08-12 08:04:00,59.2,56.3,30.00,SSE,157,2.4,2.4,90,0.00,,,0.00,WUHU21636XXSP,2013-08-12 12:04:00,
2013-08-12 08:09:00,59.5,56.7,29.99,SE,135,0.0,2.4,90,0.00,,,0.00,WUHU21636XXSP,2013-08-12 12:09:00,
2013-08-12 08:14:00,59.5,56.7,29.99,SE,135,2.2,2.4,90,0.00,,,0.00,WUHU21636XXSP,2013-08-12 12:14:00,
2013-08-12 08:19:00,59.7,56.8,29.99,SE,135,0.0,2.2,90,0.00,,,0.00,WUHU21636XXSP,2013-08-12 12:19:00,
2013-08-12 08:24:00,59.9,57.0,29.99,SSW,202,0.0,2.2,90,0.00,,,0.00,WUHU21636XXSP,2013-08-12 12:24:00,
2013-08-12 08:29:00,60.1,57.2,29.99,SSW,202,0.0,1.3,90,0.00,,,0.00,WUHU21636XXSP,2013-08-12 12:29:00,
2013-08-12 08:34:00,60.3,57.4,29.99,South,180,2.0,2.0,89,0.00,,,0.00,WUHU21636XXSP,2013-08-12 12:34:00,
2013-08-12 08:39:00,60.3,57.0,30.00,SSW,202,2.2,6.4,89,0.00,,,0.00,WUHU21636XXSP,2013-08-12 12:39:00,
2013-08-12 08:44:00,60.1,57.2,29.99,SSW,202,5.1,7.8,90,0.00,,,0.00,WUHU21636XXSP,2013-08-12 12:44:00,
2013-08-12 08:49:00,60.4,57.2,29.99,West,270,0.6,7.8,89,0.00,,,0.00,WUHU21636XXSP,2013-08-12 12:49:00,
2013-08-12 08:54:00,60.3,57.0,29.99,SSW,202,0.0,5.1,89,0.00,,,0.00,WUHU21636XXSP,2013-08-12 12:54:00,
2013-08-12 08:59:00,60.4,57.2,29.99,SSW,202,0.0,2.0,89,0.00,,,0.00,WUHU21636XXSP,2013-08-12 12:59:00,
2013-08-12 09:04:00,60.4,57.2,29.99,SW,225,0.0,5.1,89,0.00,,,0.00,WUHU21636XXSP,2013-08-12 13:04:00,
2013-08-12 09:09:00,61.0,57.7,29.99,SSE,157,0.2,5.1,89,0.00,,,0.00,WUHU21636XXSP,2013-08-12 13:09:00,
2013-08-12 09:14:00,61.2,57.9,29.99,South,180,4.9,4.9,89,0.00,,,0.00,WUHU21636XXSP,2013-08-12 13:14:00,
2013-08-12 09:19:00,61.2,57.9,29.99,SSW,202,0.0,4.9,89,0.00,,,0.00,WUHU21636XXSP,2013-08-12 13:19:00,
2013-08-12 09:24:00,61.5,58.3,29.98,SSW,202,0.6,4.9,89,0.00,,,0.00,WUHU21636XXSP,2013-08-12 13:24:00,
2013-08-12 09:29:00,61.7,58.5,29.98,SW,225,2.0,8.0,89,0.00,,,0.00,WUHU21636XXSP,2013-08-12 13:29:00,
2013-08-12 09:34:00,61.7,58.5,29.98,SW,225,0.8,8.0,89,0.00,,,0.00,WUHU21636XXSP,2013-08-12 13:34:00,
2013-08-12 09:39:00,62.1,58.8,29.98,West,270,0.6,2.0,89,0.00,,,0.00,WUHU21636XXSP,2013-08-12 13:39:00,
2013-08-12 09:44:00,62.2,59.0,29.98,SW,225,0.0,6.9,89,0.00,,,0.00,WUHU21636XXSP,2013-08-12 13:44:00,
2013-08-12 09:49:00,62.8,59.9,29.98,West,270,0.0,6.9,90,0.00,,,0.00,WUHU21636XXSP,2013-08-12 13:49:00,
2013-08-12 09:54:00,63.3,60.4,29.97,South,180,0.0,2.2,90,0.00,,,0.00,WUHU21636XXSP,2013-08-12 13:54:00,
2013-08-12 09:59:00,64.0,61.2,29.97,SW,225,3.5,3.5,90,0.00,,,0.00,WUHU21636XXSP,2013-08-12 13:59:00,
2013-08-12 10:04:00,64.9,62.2,29.97,South,180,3.1,3.5,91,0.00,,,0.00,WUHU21636XXSP,2013-08-12 14:04:00,
2013-08-12 10:09:00,66.4,62.6,29.97,SW,225,4.4,4.4,88,0.00,,,0.00,WUHU21636XXSP,2013-08-12 14:09:00,
2013-08-12 10:14:00,67.3,61.9,29.97,SSW,202,4.2,4.4,83,0.00,,,0.00,WUHU21636XXSP,2013-08-12 14:14:00,
2013-08-12 10:19:00,68.2,62.4,29.97,SE,135,2.2,4.4,82,0.00,,,0.00,WUHU21636XXSP,2013-08-12 14:19:00,
2013-08-12 10:24:00,68.5,62.4,29.96,SSW,202,1.1,3.8,79,0.00,,,0.00,WUHU21636XXSP,2013-08-12 14:24:00,
2013-08-12 10:29:00,68.9,61.7,29.96,SSE,157,0.4,5.5,78,0.00,,,0.00,WUHU21636XXSP,2013-08-12 14:29:00,
2013-08-12 10:34:00,69.1,61.5,29.96,SE,135,0.6,9.3,77,0.00,,,0.00,WUHU21636XXSP,2013-08-12 14:34:00,
2013-08-12 10:39:00,69.4,61.7,29.96,SSW,202,0.0,9.3,77,0.00,,,0.00,WUHU21636XXSP,2013-08-12 14:39:00,
2013-08-12 10:44:00,70.3,61.5,29.96,SW,225,1.1,8.2,74,0.00,,,0.00,WUHU21636XXSP,2013-08-12 14:44:00,
2013-08-12 10:49:00,70.5,62.1,29.96,South,180,0.2,8.2,75,0.00,,,0.00,WUHU21636XXSP,2013-08-12 14:49:00,
2013-08-12 10:54:00,70.5,61.0,29.96,SSE,157,3.1,14.0,72,0.00,,,0.00,WUHU21636XXSP,2013-08-12 14:54:00,
2013-08-12 10:59:00,70.7,61.9,29.95,SW,225,0.0,14.0,74,0.00,,,0.00,WUHU21636XXSP,2013-08-12 14:59:00,
2013-08-12 11:04:00,71.2,62.4,29.95,South,180,2.9,7.6,74,0.00,,,0.00,WUHU21636XXSP,2013-08-12 15:04:00,
2013-08-12 11:09:00,71.4,61.5,29.95,SSE,157,5.5,7.6,72,0.00,,,0.00,WUHU21636XXSP,2013-08-12 15:09:00,
2013-08-12 11:14:00,71.4,61.9,29.95,SSE,157,4.0,5.5,72,0.00,,,0.00,WUHU21636XXSP,2013-08-12 15:14:00,
2013-08-12 11:19:00,71.4,61.9,29.95,WNW,292,2.4,5.5,72,0.00,,,0.00,WUHU21636XXSP,2013-08-12 15:19:00,
2013-08-12 11:24:00,72.3,62.4,29.95,SW,225,4.6,4.6,71,0.00,,,0.00,WUHU21636XXSP,2013-08-12 15:24:00,
2013-08-12 11:29:00,72.7,61.9,29.95,SSW,202,4.6,8.7,69,0.00,,,0.00,WUHU21636XXSP,2013-08-12 15:29:00,
2013-08-12 11:34:00,73.0,62.2,29.95,SSW,202,2.4,13.4,69,0.00,,,0.00,WUHU21636XXSP,2013-08-12 15:34:00,
2013-08-12 11:39:00,73.0,62.2,29.95,SSE,157,4.9,13.4,69,0.00,,,0.00,WUHU21636XXSP,2013-08-12 15:39:00,
2013-08-12 11:44:00,73.4,61.7,29.95,West,270,0.2,4.9,67,0.00,,,0.00,WUHU21636XXSP,2013-08-12 15:44:00,
2013-08-12 11:49:00,75.0,60.3,29.95,South,180,3.8,8.2,64,0.00,,,0.00,WUHU21636XXSP,2013-08-12 15:49:00,
2013-08-12 11:54:00,73.6,61.3,29.94,SSE,157,0.0,8.2,66,0.00,,,0.00,WUHU21636XXSP,2013-08-12 15:54:00,
2013-08-12 11:59:00,74.1,61.5,29.94,West,270,0.0,3.8,65,0.00,,,0.00,WUHU21636XXSP,2013-08-12 15:59:00,
2013-08-12 12:04:00,74.8,62.6,29.94,SW,225,0.0,6.4,66,0.00,,,0.00,WUHU21636XXSP,2013-08-12 16:04:00,
2013-08-12 12:09:00,75.4,61.9,29.94,SSE,157,1.3,6.4,62,0.00,,,0.00,WUHU21636XXSP,2013-08-12 16:09:00,
2013-08-12 12:14:00,75.4,60.1,29.94,SSW,202,4.9,4.9,59,0.00,,,0.00,WUHU21636XXSP,2013-08-12 16:14:00,
2013-08-12 12:19:00,75.7,60.3,29.94,SSW,202,5.5,5.5,59,0.00,,,0.00,WUHU21636XXSP,2013-08-12 16:19:00,
2013-08-12 12:24:00,75.7,61.3,29.94,SSW,202,5.1,5.5,59,0.00,,,0.00,WUHU21636XXSP,2013-08-12 16:24:00,
2013-08-12 12:29:00,75.9,59.0,29.94,West,270,3.5,10.5,55,0.00,,,0.00,WUHU21636XXSP,2013-08-12 16:29:00,
2013-08-12 12:34:00,76.1,58.6,29.94,WNW,292,3.3,10.5,55,0.00,,,0.00,WUHU21636XXSP,2013-08-12 16:34:00,
2013-08-12 12:39:00,76.6,59.7,29.94,West,270,2.0,9.8,58,0.00,,,0.00,WUHU21636XXSP,2013-08-12 16:39:00,
2013-08-12 12:44:00,77.5,60.4,29.94,WSW,247,0.0,10.5,56,0.00,,,0.00,WUHU21636XXSP,2013-08-12 16:44:00,
2013-08-12 12:49:00,77.2,59.4,29.93,SSE,157,4.4,10.5,55,0.00,,,0.00,WUHU21636XXSP,2013-08-12 16:49:00,
2013-08-12 12:54:00,77.2,59.5,29.93,WSW,247,4.9,5.1,55,0.00,,,0.00,WUHU21636XXSP,2013-08-12 16:54:00,
2013-08-12 12:59:00,77.2,61.5,29.93,WSW,247,3.3,10.0,57,0.00,,,0.00,WUHU21636XXSP,2013-08-12 16:59:00,
2013-08-12 13:04:00,77.5,61.5,29.93,SSW,202,5.3,10.0,52,0.00,,,0.00,WUHU21636XXSP,2013-08-12 17:04:00,
2013-08-12 13:09:00,77.7,59.2,29.93,SSE,157,0.0,5.3,53,0.00,,,0.00,WUHU21636XXSP,2013-08-12 17:09:00,
2013-08-12 13:14:00,77.9,60.3,29.92,WSW,247,2.4,6.4,55,0.00,,,0.00,WUHU21636XXSP,2013-08-12 17:14:00,
2013-08-12 13:19:00,78.1,59.0,29.92,West,270,0.6,6.9,54,0.00,,,0.00,WUHU21636XXSP,2013-08-12 17:19:00,
2013-08-12 13:24:00,78.4,60.3,29.92,WSW,247,1.1,6.9,54,0.00,,,0.00,WUHU21636XXSP,2013-08-12 17:24:00,
2013-08-12 13:29:00,79.3,60.1,29.92,NW,315,8.7,12.9,55,0.00,,,0.00,WUHU21636XXSP,2013-08-12 17:29:00,
2013-08-12 13:34:00,78.6,59.9,29.92,West,270,1.7,12.9,53,0.00,,,0.00,WUHU21636XXSP,2013-08-12 17:34:00,
2013-08-12 13:39:00,79.0,59.7,29.92,SW,225,4.6,12.3,52,0.00,,,0.00,WUHU21636XXSP,2013-08-12 17:39:00,
2013-08-12 13:44:00,79.2,60.6,29.92,NW,315,4.4,13.4,54,0.00,,,0.00,WUHU21636XXSP,2013-08-12 17:44:00,
2013-08-12 13:49:00,79.3,59.5,29.92,West,270,4.6,13.6,51,0.00,,,0.00,WUHU21636XXSP,2013-08-12 17:49:00,
2013-08-12 13:54:00,79.2,59.9,29.92,SSW,202,8.2,14.7,54,0.00,,,0.00,WUHU21636XXSP,2013-08-12 17:54:00,
2013-08-12 13:59:00,79.3,59.9,29.92,SSE,157,3.8,19.9,52,0.00,,,0.00,WUHU21636XXSP,2013-08-12 17:59:00,
2013-08-12 14:04:00,79.2,59.9,29.92,West,270,1.7,19.9,52,0.00,,,0.00,WUHU21636XXSP,2013-08-12 18:04:00,
2013-08-12 14:09:00,78.6,59.4,29.92,WSW,247,1.5,3.8,55,0.00,,,0.00,WUHU21636XXSP,2013-08-12 18:09:00,
2013-08-12 14:14:00,79.3,62.8,29.92,WSW,247,0.4,6.7,57,0.00,,,0.00,WUHU21636XXSP,2013-08-12 18:14:00,
2013-08-12 14:19:00,79.5,60.8,29.91,NW,315,7.1,13.6,53,0.00,,,0.00,WUHU21636XXSP,2013-08-12 18:19:00,
2013-08-12 14:24:00,77.4,61.2,29.91,NW,315,10.7,16.3,57,0.00,,,0.00,WUHU21636XXSP,2013-08-12 18:24:00,
2013-08-12 14:29:00,78.6,62.6,29.91,WNW,292,4.0,16.3,58,0.00,,,0.00,WUHU21636XXSP,2013-08-12 18:29:00,
2013-08-12 14:34:00,78.6,61.5,29.91,West,270,0.0,16.1,56,0.00,,,0.00,WUHU21636XXSP,2013-08-12 18:34:00,
2013-08-12 14:39:00,79.3,63.1,29.91,WNW,292,4.0,15.6,58,0.00,,,0.00,WUHU21636XXSP,2013-08-12 18:39:00,
2013-08-12 14:44:00,79.9,62.4,29.91,West,270,2.0,15.6,56,0.00,,,0.00,WUHU21636XXSP,2013-08-12 18:44:00,
2013-08-12 14:49:00,79.9,61.7,29.91,West,270,4.9,28.4,55,0.00,,,0.00,WUHU21636XXSP,2013-08-12 18:49:00,
2013-08-12 14:54:00,79.5,61.9,29.91,WNW,292,3.3,28.4,55,0.00,,,0.00,WUHU21636XXSP,2013-08-12 18:54:00,
2013-08-12 14:59:00,79.3,61.7,29.91,NW,315,0.0,13.1,59,0.00,,,0.00,WUHU21636XXSP,2013-08-12 18:59:00,
2013-08-12 15:04:00,79.5,61.3,29.91,NW,315,4.4,23.0,54,0.00,,,0.00,WUHU21636XXSP,2013-08-12 19:04:00,
2013-08-12 15:09:00,79.3,61.5,29.90,NW,315,4.9,23.0,54,0.00,,,0.00,WUHU21636XXSP,2013-08-12 19:09:00,
2013-08-12 15:14:00,78.1,61.5,29.90,WSW,247,2.4,14.0,57,0.00,,,0.00,WUHU21636XXSP,2013-08-12 19:14:00,
2013-08-12 15:19:00,77.2,60.1,29.90,West,270,4.4,14.3,56,0.00,,,0.00,WUHU21636XXSP,2013-08-12 19:19:00,
2013-08-12 15:24:00,76.3,59.9,29.90,NW,315,6.2,14.7,58,0.00,,,0.00,WUHU21636XXSP,2013-08-12 19:24:00,
2013-08-12 15:29:00,76.3,60.8,29.90,WNW,292,1.3,14.7,59,0.00,,,0.00,WUHU21636XXSP,2013-08-12 19:29:00,
2013-08-12 15:34:00,76.3,60.8,29.90,West,270,1.1,13.6,59,0.00,,,0.00,WUHU21636XXSP,2013-08-12 19:34:00,
2013-08-12 15:39:00,75.4,60.4,29.90,NW,315,2.2,17.2,60,0.00,,,0.00,WUHU21636XXSP,2013-08-12 19:39:00,
2013-08-12 15:44:00,74.8,60.4,29.90,NNW,337,6.2,17.2,61,0.00,,,0.00,WUHU21636XXSP,2013-08-12 19:44:00,
2013-08-12 15:49:00,74.8,60.4,29.90,WNW,292,8.9,13.6,61,0.00,,,0.00,WUHU21636XXSP,2013-08-12 19:49:00,
2013-08-12 15:54:00,74.3,59.9,29.90,NW,315,7.8,16.5,61,0.00,,,0.00,WUHU21636XXSP,2013-08-12 19:54:00,
2013-08-12 15:59:00,73.9,60.4,29.90,NW,315,5.1,16.5,63,0.00,,,0.00,WUHU21636XXSP,2013-08-12 19:59:00,
2013-08-12 16:04:00,73.9,60.4,29.90,WNW,292,4.9,16.3,63,0.00,,,0.00,WUHU21636XXSP,2013-08-12 20:04:00,
2013-08-12 16:09:00,73.8,61.2,29.90,WSW,247,1.5,16.3,65,0.00,,,0.00,WUHU21636XXSP,2013-08-12 20:09:00,
2013-08-12 16:14:00,73.6,60.4,29.90,NW,315,9.1,12.5,64,0.00,,,0.00,WUHU21636XXSP,2013-08-12 20:14:00,
2013-08-12 16:19:00,73.6,60.4,29.89,WSW,247,3.5,11.8,64,0.00,,,0.00,WUHU21636XXSP,2013-08-12 20:19:00,
2013-08-12 16:24:00,73.6,60.4,29.90,WNW,292,4.4,11.8,64,0.00,,,0.00,WUHU21636XXSP,2013-08-12 20:24:00,
2013-08-12 16:29:00,72.5,60.4,29.89,WNW,292,5.3,6.4,66,0.00,,,0.00,WUHU21636XXSP,2013-08-12 20:29:00,
2013-08-12 16:34:00,71.6,60.4,29.89,WSW,247,2.0,17.8,68,0.00,,,0.00,WUHU21636XXSP,2013-08-12 20:34:00,
2013-08-12 16:39:00,71.4,59.7,29.89,NW,315,8.0,17.8,66,0.00,,,0.00,WUHU21636XXSP,2013-08-12 20:39:00,
2013-08-12 16:44:00,71.4,60.3,29.89,West,270,1.5,11.4,68,0.00,,,0.00,WUHU21636XXSP,2013-08-12 20:44:00,
2013-08-12 16:49:00,71.4,59.7,29.89,NW,315,9.8,12.3,67,0.00,,,0.00,WUHU21636XXSP,2013-08-12 20:49:00,
2013-08-12 16:54:00,71.4,59.7,29.89,NW,315,5.8,14.9,67,0.00,,,0.00,WUHU21636XXSP,2013-08-12 20:54:00,
2013-08-12 16:59:00,68.2,59.7,29.89,NW,315,9.1,14.9,66,0.00,,,0.00,WUHU21636XXSP,2013-08-12 20:59:00,
2013-08-12 17:04:00,71.8,59.7,29.89,NNW,337,7.3,12.0,66,0.00,,,0.00,WUHU21636XXSP,2013-08-12 21:04:00,
2013-08-12 17:09:00,71.8,60.1,29.89,WNW,292,6.0,11.4,67,0.00,,,0.00,WUHU21636XXSP,2013-08-12 21:09:00,
2013-08-12 17:14:00,71.8,59.9,29.89,WNW,292,2.9,12.0,67,0.00,,,0.00,WUHU21636XXSP,2013-08-12 21:14:00,
2013-08-12 17:19:00,71.4,60.3,29.89,WNW,292,4.4,12.0,68,0.00,,,0.00,WUHU21636XXSP,2013-08-12 21:19:00,
2013-08-12 17:24:00,71.4,60.3,29.89,West,270,2.6,9.3,68,0.00,,,0.00,WUHU21636XXSP,2013-08-12 21:24:00,
2013-08-12 17:29:00,71.8,60.6,29.89,NW,315,0.0,8.2,68,0.00,,,0.00,WUHU21636XXSP,2013-08-12 21:29:00,
2013-08-12 17:34:00,71.8,60.3,29.89,NW,315,5.3,5.3,68,0.00,,,0.00,WUHU21636XXSP,2013-08-12 21:34:00,
2013-08-12 17:39:00,71.2,60.4,29.89,NNW,337,3.1,7.1,69,0.00,,,0.00,WUHU21636XXSP,2013-08-12 21:39:00,
2013-08-12 17:44:00,71.2,60.4,29.89,NW,315,2.2,7.1,69,0.00,,,0.00,WUHU21636XXSP,2013-08-12 21:44:00,
2013-08-12 17:49:00,70.9,60.1,29.89,NNW,337,5.1,7.1,69,0.00,,,0.00,WUHU21636XXSP,2013-08-12 21:49:00,
2013-08-12 17:54:00,70.5,59.7,29.89,WNW,292,3.5,7.1,69,0.00,,,0.00,WUHU21636XXSP,2013-08-12 21:54:00,
2013-08-12 17:59:00,70.3,60.4,29.89,NW,315,2.2,3.8,71,0.00,,,0.00,WUHU21636XXSP,2013-08-12 21:59:00,
2013-08-12 18:04:00,70.0,60.4,29.89,NNW,337,5.1,7.8,72,0.00,,,0.00,WUHU21636XXSP,2013-08-12 22:04:00,
2013-08-12 18:09:00,69.4,60.3,29.89,NNW,337,6.4,9.1,73,0.00,,,0.00,WUHU21636XXSP,2013-08-12 22:09:00,
2013-08-12 18:14:00,69.4,60.6,29.90,NNW,337,1.7,17.0,74,0.00,,,0.00,WUHU21636XXSP,2013-08-12 22:14:00,
2013-08-12 18:19:00,69.6,60.8,29.90,NW,315,1.7,17.0,74,0.00,,,0.00,WUHU21636XXSP,2013-08-12 22:19:00,
2013-08-12 18:24:00,70.3,61.2,29.89,NNW,337,3.5,10.0,73,0.00,,,0.00,WUHU21636XXSP,2013-08-12 22:24:00,
2013-08-12 18:29:00,70.5,61.5,29.89,NW,315,6.2,17.2,73,0.00,,,0.00,WUHU21636XXSP,2013-08-12 22:29:00,
2013-08-12 18:34:00,70.5,61.7,29.90,WNW,292,10.7,17.8,74,0.00,,,0.00,WUHU21636XXSP,2013-08-12 22:34:00,
2013-08-12 18:39:00,69.1,61.0,29.90,NNW,337,0.6,17.8,75,0.00,,,0.00,WUHU21636XXSP,2013-08-12 22:39:00,
2013-08-12 18:44:00,68.4,61.2,29.90,North,0,1.1,14.9,77,0.00,,,0.00,WUHU21636XXSP,2013-08-12 22:44:00,
2013-08-12 18:49:00,68.7,60.8,29.90,North,0,0.0,14.9,76,0.00,,,0.00,WUHU21636XXSP,2013-08-12 22:49:00,
2013-08-12 18:54:00,68.5,59.9,29.90,NW,315,0.0,3.1,75,0.00,,,0.00,WUHU21636XXSP,2013-08-12 22:54:00,
2013-08-12 18:59:00,67.6,59.7,29.90,NW,315,0.4,11.1,76,0.00,,,0.00,WUHU21636XXSP,2013-08-12 22:59:00,
2013-08-12 19:04:00,67.1,59.5,29.90,NW,315,0.0,11.1,77,0.00,,,0.00,WUHU21636XXSP,2013-08-12 23:04:00,
2013-08-12 19:09:00,66.0,59.7,29.90,NNW,337,3.3,15.6,80,0.00,,,0.00,WUHU21636XXSP,2013-08-12 23:09:00,
2013-08-12 19:14:00,65.8,59.5,29.90,NW,315,3.3,15.6,80,0.00,,,0.00,WUHU21636XXSP,2013-08-12 23:14:00,
2013-08-12 19:19:00,65.5,59.4,29.90,NNW,337,4.6,7.6,81,0.00,,,0.00,WUHU21636XXSP,2013-08-12 23:19:00,
2013-08-12 19:24:00,65.5,59.4,29.90,NW,315,0.0,7.6,81,0.00,,,0.00,WUHU21636XXSP,2013-08-12 23:24:00,
2013-08-12 19:29:00,65.7,59.5,29.90,NW,315,0.0,7.6,81,0.00,,,0.00,WUHU21636XXSP,2013-08-12 23:29:00,
2013-08-12 19:34:00,65.7,59.9,29.90,NW,315,0.0,0.0,82,0.00,,,0.00,WUHU21636XXSP,2013-08-12 23:34:00,
2013-08-12 19:39:00,65.3,59.5,29.90,NW,315,3.8,3.8,82,0.00,,,0.00,WUHU21636XXSP,2013-08-12 23:39:00,
2013-08-12 19:44:00,65.1,59.4,29.90,NNW,337,3.5,3.8,82,0.00,,,0.00,WUHU21636XXSP,2013-08-12 23:44:00,
2013-08-12 19:49:00,65.1,58.6,29.90,North,0,0.0,3.8,81,0.00,,,0.00,WUHU21636XXSP,2013-08-12 23:49:00,
2013-08-12 19:54:00,64.9,58.6,29.90,NW,315,2.6,3.5,80,0.00,,,0.00,WUHU21636XXSP,2013-08-12 23:54:00,
2013-08-12 19:59:00,64.8,58.6,29.91,NW,315,3.5,3.8,81,0.00,,,0.00,WUHU21636XXSP,2013-08-12 23:59:00,
2013-08-12 20:04:00,64.6,58.3,29.91,NW,315,0.4,9.6,80,0.00,,,0.00,WUHU21636XXSP,2013-08-13 00:04:00,
2013-08-12 20:09:00,64.2,58.1,29.91,NNW,337,7.3,12.0,81,0.00,,,0.00,WUHU21636XXSP,2013-08-13 00:09:00,
2013-08-12 20:14:00,64.0,57.9,29.91,NW,315,0.4,14.0,81,0.00,,,0.00,WUHU21636XXSP,2013-08-13 00:14:00,
2013-08-12 20:19:00,64.0,57.9,29.91,NNW,337,2.6,14.0,82,0.00,,,0.00,WUHU21636XXSP,2013-08-13 00:19:00,
2013-08-12 20:24:00,63.9,58.1,29.91,NNW,337,6.7,7.3,82,0.00,,,0.00,WUHU21636XXSP,2013-08-13 00:24:00,
2013-08-12 20:29:00,63.7,57.9,29.91,NNW,337,5.3,13.4,82,0.00,,,0.00,WUHU21636XXSP,2013-08-13 00:29:00,
2013-08-12 20:34:00,63.5,57.4,29.91,NW,315,0.0,13.4,81,0.00,,,0.00,WUHU21636XXSP,2013-08-13 00:34:00,
2013-08-12 20:39:00,63.3,57.0,29.91,NNW,337,0.8,15.6,81,0.00,,,0.00,WUHU21636XXSP,2013-08-13 00:39:00,
2013-08-12 20:44:00,63.3,57.0,29.91,NW,315,4.9,15.6,80,0.00,,,0.00,WUHU21636XXSP,2013-08-13 00:44:00,
2013-08-12 20:49:00,63.1,57.0,29.91,NW,315,6.0,10.5,81,0.00,,,0.00,WUHU21636XXSP,2013-08-13 00:49:00,
2013-08-12 20:54:00,62.8,56.7,29.91,North,0,0.0,10.5,81,0.00,,,0.00,WUHU21636XXSP,2013-08-13 00:54:00,
2013-08-12 20:59:00,62.4,56.3,29.91,NW,315,0.6,2.9,81,0.00,,,0.00,WUHU21636XXSP,2013-08-13 00:59:00,
2013-08-12 21:04:00,62.2,56.5,29.91,North,0,5.5,6.9,82,0.00,,,0.00,WUHU21636XXSP,2013-08-13 01:04:00,
2013-08-12 21:09:00,61.9,55.9,29.91,NNW,337,0.0,6.9,81,0.00,,,0.00,WUHU21636XXSP,2013-08-13 01:09:00,
2013-08-12 21:14:00,61.7,56.1,29.91,North,0,1.7,2.9,82,0.00,,,0.00,WUHU21636XXSP,2013-08-13 01:14:00,
2013-08-12 21:19:00,61.5,55.9,29.91,NW,315,2.6,12.0,82,0.00,,,0.00,WUHU21636XXSP,2013-08-13 01:19:00,
2013-08-12 21:24:00,61.5,55.9,29.92,NNW,337,0.0,16.7,81,0.00,,,0.00,WUHU21636XXSP,2013-08-13 01:24:00,
2013-08-12 21:29:00,61.3,55.2,29.92,NNW,337,4.2,16.7,81,0.00,,,0.00,WUHU21636XXSP,2013-08-13 01:29:00,
2013-08-12 21:34:00,61.0,55.0,29.92,NNW,337,0.0,10.5,81,0.00,,,0.00,WUHU21636XXSP,2013-08-13 01:34:00,
2013-08-12 21:39:00,60.8,54.7,29.93,NNW,337,3.8,17.6,80,0.00,,,0.00,WUHU21636XXSP,2013-08-13 01:39:00,
2013-08-12 21:44:00,60.6,54.5,29.93,NW,315,3.1,17.6,80,0.00,,,0.00,WUHU21636XXSP,2013-08-13 01:44:00,
2013-08-12 21:49:00,60.4,54.3,29.93,North,0,3.5,16.3,80,0.00,,,0.00,WUHU21636XXSP,2013-08-13 01:49:00,
2013-08-12 21:54:00,60.4,54.0,29.93,NNW,337,1.7,16.3,79,0.00,,,0.00,WUHU21636XXSP,2013-08-13 01:54:00,
2013-08-12 21:59:00,60.3,53.6,29.93,North,0,4.4,14.0,79,0.00,,,0.00,WUHU21636XXSP,2013-08-13 01:59:00,
2013-08-12 22:04:00,59.7,53.2,29.93,NW,315,4.4,12.9,79,0.00,,,0.00,WUHU21636XXSP,2013-08-13 02:04:00,
2013-08-12 22:09:00,59.7,53.2,29.93,NNW,337,0.0,11.8,80,0.00,,,0.00,WUHU21636XXSP,2013-08-13 02:09:00,
2013-08-12 22:14:00,59.2,53.1,29.94,NNW,337,1.5,12.9,80,0.00,,,0.00,WUHU21636XXSP,2013-08-13 02:14:00,
2013-08-12 22:19:00,59.0,52.9,29.94,North,0,0.0,12.9,80,0.00,,,0.00,WUHU21636XXSP,2013-08-13 02:19:00,
2013-08-12 22:24:00,59.0,52.9,29.94,NW,315,2.9,2.9,81,0.00,,,0.00,WUHU21636XXSP,2013-08-13 02:24:00,
2013-08-12 22:29:00,59.0,53.1,29.94,NNW,337,1.3,16.7,81,0.00,,,0.00,WUHU21636XXSP,2013-08-13 02:29:00,
2013-08-12 22:34:00,59.0,52.9,29.94,NW,315,0.0,16.7,81,0.00,,,0.00,WUHU21636XXSP,2013-08-13 02:34:00,
2013-08-12 22:39:00,58.5,52.3,29.94,NNW,337,0.8,9.3,80,0.00,,,0.00,WUHU21636XXSP,2013-08-13 02:39:00,
2013-08-12 22:44:00,58.3,52.2,29.94,North,0,0.0,9.3,80,0.00,,,0.00,WUHU21636XXSP,2013-08-13 02:44:00,
2013-08-12 22:49:00,58.1,52.0,29.94,North,0,5.3,7.1,80,0.00,,,0.00,WUHU21636XXSP,2013-08-13 02:49:00,
2013-08-12 22:54:00,57.9,51.8,29.94,NW,315,4.6,14.3,80,0.00,,,0.00,WUHU21636XXSP,2013-08-13 02:54:00,
2013-08-12 22:59:00,57.7,51.6,29.94,NW,315,0.0,14.3,81,0.00,,,0.00,WUHU21636XXSP,2013-08-13 02:59:00,
2013-08-12 23:04:00,57.6,51.6,29.94,North,0,0.4,7.1,81,0.00,,,0.00,WUHU21636XXSP,2013-08-13 03:04:00,
2013-08-12 23:09:00,57.7,51.8,29.94,North,0,1.7,7.1,81,0.00,,,0.00,WUHU21636XXSP,2013-08-13 03:09:00,
2013-08-12 23:14:00,57.7,51.8,29.94,NNE,22,0.0,4.4,81,0.00,,,0.00,WUHU21636XXSP,2013-08-13 03:14:00,
2013-08-12 23:19:00,57.7,51.8,29.95,NNW,337,1.5,4.4,81,0.00,,,0.00,WUHU21636XXSP,2013-08-13 03:19:00,
2013-08-12 23:24:00,57.7,51.8,29.95,NW,315,5.8,9.3,81,0.00,,,0.00,WUHU21636XXSP,2013-08-13 03:24:00,
2013-08-12 23:29:00,57.7,51.8,29.95,NW,315,3.8,10.9,81,0.00,,,0.00,WUHU21636XXSP,2013-08-13 03:29:00,
2013-08-12 23:34:00,57.7,51.8,29.95,NW,315,0.8,10.9,81,0.00,,,0.00,WUHU21636XXSP,2013-08-13 03:34:00,
2013-08-12 23:39:00,57.6,51.6,29.95,North,0,3.5,9.8,81,0.00,,,0.00,WUHU21636XXSP,2013-08-13 03:39:00,
2013-08-12 23:44:00,57.6,51.6,29.95,NW,315,0.6,9.8,81,0.00,,,0.00,WUHU21636XXSP,2013-08-13 03:44:00,
2013-08-12 23:52:00,57.6,51.6,29.95,East,90,0.4,3.3,80,0.00,,,0.00,WUHU21636XXSP,2013-08-13 03:52:00,
2013-08-12 23:57:00,57.6,51.4,29.95,NNW,337,0.0,14.9,80,0.00,,,0.00,WUHU21636XXSP,2013-08-13 03:57:00,